createdAt,value
2017-05-29T00:01:29.464Z,100404.77
2017-05-29T00:03:58.554Z,100408.94
2017-05-29T00:06:27.648Z,100397.27
2017-05-29T00:08:56.717Z,100395.09
2017-05-29T00:11:25.799Z,100385.78
2017-05-29T00:13:54.927Z,100392.91
2017-05-29T00:16:25.445Z,100388.58
2017-05-29T00:18:54.524Z,100390.73
2017-05-29T00:21:23.612Z,100388.97
2017-05-29T00:23:52.689Z,100384.22
2017-05-29T00:26:21.742Z,100385.42
2017-05-29T00:28:50.826Z,100382.63
2017-05-29T00:31:20.006Z,100384.81
2017-05-29T00:33:49.070Z,100382.05
2017-05-29T00:36:18.142Z,100378.30
2017-05-29T00:38:47.195Z,100376.91
2017-05-29T00:41:16.288Z,100376.91
2017-05-29T00:43:45.366Z,100380.06
2017-05-29T00:46:14.425Z,100375.72
2017-05-29T00:48:43.510Z,100365.64
2017-05-29T00:51:12.592Z,100370.17
2017-05-29T00:53:41.665Z,100373.75
2017-05-29T00:56:11.318Z,100366.83
2017-05-29T00:58:40.425Z,100367.22
2017-05-29T01:01:09.542Z,100364.06
2017-05-29T01:03:38.618Z,100367.61
2017-05-29T01:06:07.740Z,100374.93
2017-05-29T01:08:36.821Z,100379.87
2017-05-29T01:11:05.174Z,100380.64
2017-05-29T01:13:34.289Z,100375.09
2017-05-29T01:16:03.376Z,100369.75
2017-05-29T01:18:32.447Z,100374.69
2017-05-29T01:21:02.332Z,100375.46
2017-05-29T01:23:31.446Z,100376.26
2017-05-29T01:26:00.637Z,100373.10
2017-05-29T01:28:29.694Z,100374.67
2017-05-29T01:30:58.784Z,100376.25
2017-05-29T01:33:27.838Z,100384.53
2017-05-29T01:35:56.889Z,100371.52
2017-05-29T01:38:25.985Z,100371.10
2017-05-29T01:40:55.065Z,100377.01
2017-05-29T01:43:24.211Z,100375.61
2017-05-29T01:45:53.285Z,100371.84
2017-05-29T01:48:22.411Z,100373.20
2017-05-29T01:50:51.629Z,100369.42
2017-05-29T01:53:20.727Z,100367.05
2017-05-29T01:55:50.787Z,100366.07
2017-05-29T01:58:19.860Z,100367.64
2017-05-29T02:00:49.177Z,100366.06
2017-05-29T02:03:18.248Z,100364.86
2017-05-29T02:05:47.305Z,100366.24
2017-05-29T02:08:16.411Z,100356.59
2017-05-29T02:10:45.496Z,100355.21
2017-05-29T02:13:15.255Z,100351.66
2017-05-29T02:15:44.356Z,100346.10
2017-05-29T02:18:13.413Z,100342.16
2017-05-29T02:20:42.471Z,100347.09
2017-05-29T02:23:11.559Z,100357.36
2017-05-29T02:25:40.665Z,100349.85
2017-05-29T02:28:10.142Z,100353.44
2017-05-29T02:30:39.347Z,100346.72
2017-05-29T02:33:08.615Z,100348.72
2017-05-29T02:35:37.681Z,100349.13
2017-05-29T02:38:06.751Z,100336.49
2017-05-29T02:40:36.132Z,100333.53
2017-05-29T02:43:05.812Z,100337.47
2017-05-29T02:45:35.259Z,100345.37
2017-05-29T02:48:04.433Z,100350.71
2017-05-29T02:50:33.488Z,100349.13
2017-05-29T02:53:02.698Z,100354.84
2017-05-29T02:55:31.769Z,100348.31
2017-05-29T02:58:00.821Z,100349.11
2017-05-29T03:00:29.908Z,100352.64
2017-05-29T03:02:58.990Z,100350.08
2017-05-29T03:05:28.072Z,100344.55
2017-05-29T03:07:57.126Z,100342.56
2017-05-29T03:10:26.252Z,100345.14
2017-05-29T03:12:55.324Z,100340.39
2017-05-29T03:15:24.460Z,100344.77
2017-05-29T03:17:53.524Z,100340.98
2017-05-29T03:20:22.617Z,100342.99
2017-05-29T03:22:51.880Z,100347.53
2017-05-29T03:25:20.974Z,100350.69
2017-05-29T03:27:50.032Z,100349.48
2017-05-29T03:30:19.131Z,100342.37
2017-05-29T03:32:48.209Z,100340.57
2017-05-29T03:35:17.278Z,100329.71
2017-05-29T03:37:46.366Z,100334.66
2017-05-29T03:40:15.492Z,100325.95
2017-05-29T03:42:44.546Z,100329.87
2017-05-29T03:45:13.633Z,100323.36
2017-05-29T03:47:42.723Z,100321.33
2017-05-29T03:50:11.864Z,100310.47
2017-05-29T03:52:40.910Z,100301.77
2017-05-29T03:55:09.994Z,100302.97
2017-05-29T03:57:39.062Z,100298.83
2017-05-29T04:00:08.168Z,100304.35
2017-05-29T04:02:36.484Z,100298.23
2017-05-29T04:05:05.568Z,100303.81
2017-05-29T04:07:34.621Z,100298.48
2017-05-29T04:10:03.733Z,100301.39
2017-05-29T04:12:33.086Z,100298.43
2017-05-29T04:15:02.188Z,100298.29
2017-05-29T04:17:31.253Z,100294.73
2017-05-29T04:20:00.324Z,100293.97
2017-05-29T04:22:29.393Z,100300.70
2017-05-29T04:24:57.753Z,100305.02
2017-05-29T04:27:26.806Z,100303.05
2017-05-29T04:29:55.873Z,100297.72
2017-05-29T04:32:24.988Z,100289.05
2017-05-29T04:34:54.061Z,100287.69
2017-05-29T04:37:23.113Z,100284.94
2017-05-29T04:39:52.247Z,100290.86
2017-05-29T04:42:21.317Z,100285.34
2017-05-29T04:44:50.384Z,100298.16
2017-05-29T04:47:18.721Z,100293.25
2017-05-29T04:49:47.805Z,100293.45
2017-05-29T04:52:16.936Z,100291.28
2017-05-29T04:54:45.992Z,100287.73
2017-05-29T04:57:15.101Z,100291.48
2017-05-29T04:59:44.169Z,100288.91
2017-05-29T05:02:13.247Z,100282.19
2017-05-29T05:04:42.338Z,100290.72
2017-05-29T05:07:11.574Z,100282.43
2017-05-29T05:09:40.629Z,100276.08
2017-05-29T05:12:09.725Z,100275.89
2017-05-29T05:14:38.826Z,100270.71
2017-05-29T05:17:08.013Z,100267.34
2017-05-29T05:19:37.068Z,100261.21
2017-05-29T05:22:06.170Z,100257.84
2017-05-29T05:24:35.233Z,100254.28
2017-05-29T05:27:04.308Z,100253.84
2017-05-29T05:29:33.387Z,100244.13
2017-05-29T05:32:02.488Z,100252.42
2017-05-29T05:34:31.578Z,100252.80
2017-05-29T05:37:00.653Z,100262.12
2017-05-29T05:39:29.716Z,100249.63
2017-05-29T05:41:58.777Z,100252.53
2017-05-29T05:44:27.853Z,100256.26
2017-05-29T05:46:56.975Z,100255.02
2017-05-29T05:49:26.027Z,100262.29
2017-05-29T05:51:55.117Z,100256.89
2017-05-29T05:54:24.177Z,100258.80
2017-05-29T05:56:53.835Z,100264.34
2017-05-29T05:59:23.071Z,100264.89
2017-05-29T06:01:52.229Z,100262.67
2017-05-29T06:04:21.296Z,100261.41
2017-05-29T06:06:50.916Z,100270.98
2017-05-29T06:09:20.014Z,100271.71
2017-05-29T06:11:49.525Z,100268.11
2017-05-29T06:14:18.588Z,100278.41
2017-05-29T06:16:47.746Z,100280.72
2017-05-29T06:19:16.817Z,100285.17
2017-05-29T06:21:45.909Z,100280.19
2017-05-29T06:24:14.986Z,100281.21
2017-05-29T06:26:44.049Z,100275.41
2017-05-29T06:29:13.167Z,100281.27
2017-05-29T06:31:42.249Z,100283.36
2017-05-29T06:34:11.332Z,100287.48
2017-05-29T06:36:40.395Z,100282.03
2017-05-29T06:39:09.461Z,100281.34
2017-05-29T06:41:37.785Z,100280.53
2017-05-29T06:44:07.130Z,100282.60
2017-05-29T06:46:36.185Z,100283.41
2017-05-29T06:49:05.327Z,100277.26
2017-05-29T06:51:34.389Z,100273.01
2017-05-29T06:54:03.479Z,100275.04
2017-05-29T06:56:32.545Z,100271.72
2017-05-29T06:59:01.621Z,100271.90
2017-05-29T07:01:30.670Z,100268.93
2017-05-29T07:03:59.745Z,100263.89
2017-05-29T07:06:28.858Z,100265.64
2017-05-29T07:08:57.934Z,100260.00
2017-05-29T07:11:27.016Z,100258.23
2017-05-29T07:13:56.067Z,100252.86
2017-05-29T07:16:25.120Z,100252.55
2017-05-29T07:18:54.217Z,100250.48
2017-05-29T07:21:23.313Z,100261.86
2017-05-29T07:23:52.465Z,100252.30
2017-05-29T07:26:21.529Z,100258.01
2017-05-29T07:28:50.639Z,100250.91
2017-05-29T07:31:19.722Z,100257.30
2017-05-29T07:33:48.816Z,100257.09
2017-05-29T07:36:18.041Z,100260.40
2017-05-29T07:38:47.129Z,100260.32
2017-05-29T07:41:16.197Z,100259.54
2017-05-29T07:43:45.281Z,100257.92
2017-05-29T07:46:14.353Z,100251.53
2017-05-29T07:48:43.420Z,100251.34
2017-05-29T07:51:12.504Z,100241.75
2017-05-29T07:53:41.602Z,100236.17
2017-05-29T07:56:10.817Z,100235.47
2017-05-29T07:58:39.932Z,100234.18
2017-05-29T08:01:09.055Z,100226.20
2017-05-29T08:03:38.142Z,100220.90
2017-05-29T08:06:07.230Z,100215.71
2017-05-29T08:08:36.286Z,100220.73
2017-05-29T08:11:05.349Z,100217.50
2017-05-29T08:13:34.862Z,100223.80
2017-05-29T08:16:03.944Z,100221.65
2017-05-29T08:18:33.004Z,100217.69
2017-05-29T08:21:02.119Z,100223.89
2017-05-29T08:23:31.217Z,100217.55
2017-05-29T08:26:00.309Z,100217.55
2017-05-29T08:28:29.348Z,100219.91
2017-05-29T08:30:58.457Z,100210.37
2017-05-29T08:33:27.555Z,100218.61
2017-05-29T08:35:57.350Z,100214.27
2017-05-29T08:38:26.406Z,100211.75
2017-05-29T08:40:55.477Z,100206.94
2017-05-29T08:43:24.522Z,100201.55
2017-05-29T08:45:53.599Z,100204.86
2017-05-29T08:48:22.713Z,100209.90
2017-05-29T08:50:52.240Z,100202.80
2017-05-29T08:53:21.334Z,100201.89
2017-05-29T08:55:50.489Z,100200.95
2017-05-29T08:58:21.138Z,100200.50
2017-05-29T09:00:51.122Z,100196.76
2017-05-29T09:03:21.084Z,100195.52
2017-05-29T09:05:50.949Z,100192.34
2017-05-29T09:08:24.367Z,100198.65
2017-05-29T09:10:53.617Z,100190.81
2017-05-29T09:13:22.723Z,100194.68
2017-05-29T09:15:51.800Z,100193.59
2017-05-29T09:18:21.396Z,100186.99
2017-05-29T09:20:51.100Z,100187.28
2017-05-29T09:23:20.306Z,100183.25
2017-05-29T09:25:49.371Z,100181.11
2017-05-29T09:28:21.813Z,100174.41
2017-05-29T09:30:54.811Z,100171.88
2017-05-29T09:33:26.052Z,100163.91
2017-05-29T09:35:56.698Z,100166.08
2017-05-29T09:38:26.086Z,100160.69
2017-05-29T09:40:55.784Z,100158.36
2017-05-29T09:43:24.862Z,100149.53
2017-05-29T09:45:54.425Z,100148.53
2017-05-29T09:48:23.479Z,100142.71
2017-05-29T09:50:53.213Z,100141.89
2017-05-29T09:53:22.289Z,100140.91
2017-05-29T09:55:51.652Z,100132.35
2017-05-29T09:58:20.697Z,100129.38
2017-05-29T10:00:50.457Z,100122.55
2017-05-29T10:03:19.532Z,100124.95
2017-05-29T10:05:49.348Z,100122.08
2017-05-29T10:08:18.413Z,100126.59
2017-05-29T10:10:47.498Z,100127.38
2017-05-29T10:13:16.548Z,100115.25
2017-05-29T10:15:45.613Z,100108.88
2017-05-29T10:18:14.688Z,100108.00
2017-05-29T10:20:43.744Z,100107.17
2017-05-29T10:23:12.806Z,100103.88
2017-05-29T10:25:41.867Z,100098.72
2017-05-29T10:28:10.972Z,100097.47
2017-05-29T10:30:40.038Z,100090.47
2017-05-29T10:33:09.113Z,100087.22
2017-05-29T10:35:38.184Z,100083.39
2017-05-29T10:38:07.237Z,100080.05
2017-05-29T10:40:36.297Z,100081.42
2017-05-29T10:43:05.369Z,100081.74
2017-05-29T10:45:34.890Z,100084.52
2017-05-29T10:48:03.935Z,100080.67
2017-05-29T10:50:33.005Z,100077.09
2017-05-29T10:53:02.056Z,100070.25
2017-05-29T10:55:31.136Z,100064.48
2017-05-29T10:58:00.302Z,100058.77
2017-05-29T11:00:29.382Z,100056.53
2017-05-29T11:02:58.448Z,100053.57
2017-05-29T11:05:27.504Z,100055.06
2017-05-29T11:07:56.579Z,100051.66
2017-05-29T11:10:25.639Z,100053.70
2017-05-29T11:12:54.691Z,100046.98
2017-05-29T11:15:23.835Z,100046.29
2017-05-29T11:17:53.272Z,100037.26
2017-05-29T11:20:22.601Z,100036.73
2017-05-29T11:22:52.394Z,100040.49
2017-05-29T11:25:21.519Z,100039.95
2017-05-29T11:27:50.968Z,100041.76
2017-05-29T11:30:20.061Z,100041.27
2017-05-29T11:32:49.162Z,100037.37
2017-05-29T11:35:18.222Z,100032.77
2017-05-29T11:37:47.295Z,100025.99
2017-05-29T11:40:16.486Z,100028.25
2017-05-29T11:42:45.548Z,100026.31
2017-05-29T11:45:14.663Z,100031.85
2017-05-29T11:47:43.725Z,100023.45
2017-05-29T11:50:12.840Z,100019.55
2017-05-29T11:52:41.935Z,100018.64
2017-05-29T11:55:11.128Z,100014.27
2017-05-29T11:57:40.181Z,100013.52
2017-05-29T12:00:09.265Z,100005.11
2017-05-29T12:02:38.316Z,100011.64
2017-05-29T12:05:07.401Z,100009.80
2017-05-29T12:07:36.475Z,100003.05
2017-05-29T12:10:05.556Z,100002.13
2017-05-29T12:12:34.622Z,99997.09
2017-05-29T12:15:03.684Z,99995.55
2017-05-29T12:17:32.759Z,100003.14
2017-05-29T12:20:01.821Z,99996.06
2017-05-29T12:22:30.871Z,99997.66
2017-05-29T12:25:00.385Z,99993.92
2017-05-29T12:27:29.437Z,99995.61
2017-05-29T12:29:58.573Z,99992.76
2017-05-29T12:32:27.641Z,99986.14
2017-05-29T12:34:57.179Z,99984.34
2017-05-29T12:37:25.498Z,99989.84
2017-05-29T12:39:54.596Z,99984.94
2017-05-29T12:42:23.693Z,99978.87
2017-05-29T12:44:52.774Z,99973.80
2017-05-29T12:47:21.830Z,99982.99
2017-05-29T12:49:50.899Z,99978.69
2017-05-29T12:52:19.978Z,99970.72
2017-05-29T12:54:49.036Z,99978.01
2017-05-29T12:57:18.104Z,99974.20
2017-05-29T12:59:47.159Z,99968.48
2017-05-29T13:02:18.473Z,99966.08
2017-05-29T13:04:47.536Z,99960.27
2017-05-29T13:07:16.982Z,99958.37
2017-05-29T13:09:46.058Z,99954.45
2017-05-29T13:12:15.134Z,99961.97
2017-05-29T13:14:44.222Z,99965.11
2017-05-29T13:17:13.333Z,99960.71
2017-05-29T13:19:42.432Z,99957.30
2017-05-29T13:22:11.492Z,99955.93
2017-05-29T13:24:40.564Z,99953.25
2017-05-29T13:27:09.777Z,99949.72
2017-05-29T13:29:38.832Z,99943.45
2017-05-29T13:32:07.925Z,99940.18
2017-05-29T13:34:37.070Z,99947.16
2017-05-29T13:37:06.340Z,99938.14
2017-05-29T13:39:35.402Z,99945.14
2017-05-29T13:42:04.458Z,99939.03
2017-05-29T13:44:33.560Z,99937.70
2017-05-29T13:47:02.615Z,99943.55
2017-05-29T13:49:31.658Z,99946.37
2017-05-29T13:52:00.761Z,99936.86
2017-05-29T13:54:29.815Z,99933.39
2017-05-29T13:56:58.856Z,99942.66
2017-05-29T13:59:27.956Z,99939.41
2017-05-29T14:01:57.302Z,99937.94
2017-05-29T14:04:26.353Z,99936.73
2017-05-29T14:06:55.427Z,99933.61
2017-05-29T14:09:24.485Z,99930.02
2017-05-29T14:11:53.544Z,99934.06
2017-05-29T14:14:25.687Z,99929.97
2017-05-29T14:16:54.761Z,99917.53
2017-05-29T14:19:23.849Z,99924.91
2017-05-29T14:21:52.902Z,99920.88
2017-05-29T14:24:21.940Z,99908.45
2017-05-29T14:26:51.020Z,99912.08
2017-05-29T14:29:20.089Z,99906.37
2017-05-29T14:31:49.206Z,99902.67
2017-05-29T14:34:18.391Z,99905.14
2017-05-29T14:36:47.498Z,99900.48
2017-05-29T14:39:16.563Z,99898.84
2017-05-29T14:41:45.629Z,99899.12
2017-05-29T14:44:14.720Z,99890.70
2017-05-29T14:46:43.798Z,99890.77
2017-05-29T14:49:12.990Z,99895.95
2017-05-29T14:51:42.171Z,99891.48
2017-05-29T14:54:11.262Z,99897.11
2017-05-29T14:56:40.422Z,99893.87
2017-05-29T14:59:09.519Z,99886.55
2017-05-29T15:01:37.821Z,99878.63
2017-05-29T15:04:06.116Z,99887.11
2017-05-29T15:06:35.190Z,99884.99
2017-05-29T15:09:04.407Z,99865.02
2017-05-29T15:11:33.503Z,99874.14
2017-05-29T15:14:01.807Z,99870.59
2017-05-29T15:16:30.204Z,99877.56
2017-05-29T15:18:59.339Z,99868.72
2017-05-29T15:21:28.416Z,99861.75
2017-05-29T15:23:57.513Z,99860.65
2017-05-29T15:26:25.813Z,99855.78
2017-05-29T15:28:54.877Z,99854.22
2017-05-29T15:31:23.946Z,99846.98
2017-05-29T15:33:53.024Z,99849.59
2017-05-29T15:36:21.526Z,99851.45
2017-05-29T15:38:50.793Z,99849.13
2017-05-29T15:41:19.976Z,99850.54
2017-05-29T15:43:49.055Z,99844.74
2017-05-29T15:46:18.179Z,99846.84
2017-05-29T15:48:47.233Z,99846.46
2017-05-29T15:51:16.292Z,99844.35
2017-05-29T15:53:45.362Z,99844.28
2017-05-29T15:56:14.454Z,99841.32
2017-05-29T15:58:43.527Z,99845.69
2017-05-29T16:01:13.228Z,99838.42
2017-05-29T16:03:42.313Z,99835.13
2017-05-29T16:06:10.604Z,99840.09
2017-05-29T16:08:39.657Z,99838.06
2017-05-29T16:11:08.027Z,99844.69
2017-05-29T16:13:36.890Z,99837.58
2017-05-29T16:16:06.028Z,99834.44
2017-05-29T16:18:35.092Z,99830.23
2017-05-29T16:21:04.158Z,99825.47
2017-05-29T16:23:33.229Z,99826.53
2017-05-29T16:26:02.271Z,99832.83
2017-05-29T16:28:31.356Z,99828.61
2017-05-29T16:31:00.417Z,99836.13
2017-05-29T16:33:29.491Z,99836.23
2017-05-29T16:35:58.567Z,99833.06
2017-05-29T16:38:27.625Z,99841.48
2017-05-29T16:40:56.693Z,99837.69
2017-05-29T16:43:25.793Z,99837.27
2017-05-29T16:45:54.985Z,99837.26
2017-05-29T16:48:24.139Z,99841.67
2017-05-29T16:50:53.761Z,99841.78
2017-05-29T16:53:22.824Z,99838.95
2017-05-29T16:55:51.934Z,99840.61
2017-05-29T16:58:21.013Z,99836.13
2017-05-29T17:00:51.366Z,99841.37
2017-05-29T17:03:20.432Z,99841.20
2017-05-29T17:05:49.494Z,99840.72
2017-05-29T17:08:18.937Z,99833.58
2017-05-29T17:10:48.017Z,99837.55
2017-05-29T17:13:17.061Z,99839.06
2017-05-29T17:15:46.177Z,99843.04
2017-05-29T17:18:15.262Z,99841.23
2017-05-29T17:23:04.481Z,99837.80
2017-05-29T17:25:33.528Z,99834.31
2017-05-29T17:28:02.884Z,99832.11
2017-05-29T17:30:31.959Z,99842.32
2017-05-29T17:33:01.000Z,99844.84
2017-05-29T17:35:30.041Z,99833.25
2017-05-29T17:37:59.224Z,99830.41
2017-05-29T17:40:28.280Z,99839.23
2017-05-29T17:42:57.356Z,99838.29
2017-05-29T17:45:26.424Z,99837.10
2017-05-29T17:47:55.502Z,99841.81
2017-05-29T17:50:24.542Z,99839.55
2017-05-29T17:52:53.627Z,99841.20
2017-05-29T17:55:22.685Z,99847.95
2017-05-29T17:57:51.802Z,99850.64
2017-05-29T18:00:20.836Z,99846.73
2017-05-29T18:02:49.916Z,99847.18
2017-05-29T18:05:19.016Z,99850.27
2017-05-29T18:07:48.200Z,99859.59
2017-05-29T18:10:17.249Z,99863.87
2017-05-29T18:12:46.342Z,99870.59
2017-05-29T18:15:15.452Z,99879.92
2017-05-29T18:17:44.496Z,99880.14
2017-05-29T18:20:13.606Z,99877.70
2017-05-29T18:22:42.682Z,99876.02
2017-05-29T18:25:11.742Z,99879.66
2017-05-29T18:27:40.811Z,99882.16
2017-05-29T18:30:10.004Z,99885.66
2017-05-29T18:32:39.077Z,99884.73
2017-05-29T18:35:08.212Z,99885.31
2017-05-29T18:37:37.268Z,99885.16
2017-05-29T18:40:06.368Z,99885.14
2017-05-29T18:42:35.448Z,99887.77
2017-05-29T18:45:04.500Z,99883.62
2017-05-29T18:47:33.641Z,99883.40
2017-05-29T18:50:02.793Z,99886.67
2017-05-29T18:52:31.873Z,99881.98
2017-05-29T18:55:00.922Z,99881.13
2017-05-29T18:57:30.020Z,99881.48
2017-05-29T18:59:59.081Z,99880.14
2017-05-29T19:02:28.201Z,99878.13
2017-05-29T19:04:57.246Z,99880.17
2017-05-29T19:07:26.399Z,99881.78
2017-05-29T19:09:55.786Z,99887.97
2017-05-29T19:12:24.843Z,99890.36
2017-05-29T19:14:53.916Z,99881.80
2017-05-29T19:17:22.988Z,99888.45
2017-05-29T19:19:52.220Z,99887.37
2017-05-29T19:22:21.283Z,99889.13
2017-05-29T19:24:50.887Z,99889.72
2017-05-29T19:27:19.940Z,99892.31
2017-05-29T19:29:49.182Z,99898.02
2017-05-29T19:32:18.274Z,99896.48
2017-05-29T19:34:47.318Z,99892.36
2017-05-29T19:37:16.442Z,99899.20
2017-05-29T19:39:45.536Z,99899.56
2017-05-29T19:42:14.609Z,99901.03
2017-05-29T19:44:43.653Z,99901.77
2017-05-29T19:47:12.968Z,99902.55
2017-05-29T19:49:42.333Z,99901.62
2017-05-29T19:52:11.445Z,99908.51
2017-05-29T19:54:40.489Z,99917.74
2017-05-29T19:57:09.595Z,99911.53
2017-05-29T19:59:38.656Z,99920.15
2017-05-29T20:02:08.025Z,99914.79
2017-05-29T20:04:37.101Z,99908.39
2017-05-29T20:07:06.182Z,99905.82
2017-05-29T20:09:36.054Z,99902.84
2017-05-29T20:12:05.135Z,99894.13
2017-05-29T20:14:34.203Z,99904.06
2017-05-29T20:17:03.339Z,99903.28
2017-05-29T20:19:32.400Z,99892.34
2017-05-29T20:22:01.523Z,99890.09
2017-05-29T20:24:30.770Z,99886.03
2017-05-29T20:26:59.847Z,99887.75
2017-05-29T20:29:29.683Z,99887.41
2017-05-29T20:31:58.731Z,99887.70
2017-05-29T20:34:27.828Z,99890.33
2017-05-29T20:36:56.926Z,99893.77
2017-05-29T20:39:25.992Z,99899.04
2017-05-29T20:41:55.066Z,99897.98
2017-05-29T20:44:24.156Z,99905.86
2017-05-29T20:46:54.148Z,99907.50
2017-05-29T20:49:23.232Z,99913.64
2017-05-29T20:51:52.298Z,99909.82
2017-05-29T20:54:21.340Z,99921.46
2017-05-29T20:56:50.824Z,99924.78
2017-05-29T20:59:19.876Z,99930.87
2017-05-29T21:01:48.982Z,99923.98
2017-05-29T21:04:18.098Z,99932.56
2017-05-29T21:06:47.149Z,99929.03
2017-05-29T21:09:16.237Z,99931.12
2017-05-29T21:11:45.312Z,99924.53
2017-05-29T21:14:14.385Z,99929.16
2017-05-29T21:16:43.436Z,99928.94
2017-05-29T21:19:12.520Z,99937.97
2017-05-29T21:21:41.584Z,99941.64
2017-05-29T21:24:10.665Z,99937.71
2017-05-29T21:26:39.742Z,99941.02
2017-05-29T21:29:08.850Z,99940.09
2017-05-29T21:31:37.945Z,99935.59
2017-05-29T21:34:07.022Z,99932.57
2017-05-29T21:36:36.072Z,99936.09
2017-05-29T21:39:05.221Z,99938.70
2017-05-29T21:41:34.278Z,99937.92
2017-05-29T21:44:03.603Z,99932.64
2017-05-29T21:46:32.689Z,99940.78
2017-05-29T21:49:01.771Z,99934.79
2017-05-29T21:51:31.044Z,99941.26
2017-05-29T21:54:00.143Z,99943.94
2017-05-29T21:56:29.225Z,99942.74
2017-05-29T21:58:58.309Z,99943.51
2017-05-29T22:01:27.372Z,99947.30
2017-05-29T22:03:56.501Z,99945.86
2017-05-29T22:06:25.589Z,99951.84
2017-05-29T22:08:54.687Z,99947.47
2017-05-29T22:11:23.761Z,99945.08
2017-05-29T22:13:52.836Z,99943.54
2017-05-29T22:16:21.916Z,99946.84
2017-05-29T22:18:52.109Z,99951.95
2017-05-29T22:21:21.164Z,99950.86
2017-05-29T22:23:50.232Z,99960.06
2017-05-29T22:26:19.341Z,99958.45
2017-05-29T22:28:48.396Z,99964.02
2017-05-29T22:31:17.450Z,99965.95
2017-05-29T22:33:46.660Z,99973.41
2017-05-29T22:36:15.716Z,99975.25
2017-05-29T22:38:44.792Z,99979.13
2017-05-29T22:41:13.853Z,99973.80
2017-05-29T22:43:42.954Z,99970.25
2017-05-29T22:46:12.091Z,99976.17
2017-05-29T22:48:41.141Z,99976.39
2017-05-29T22:51:10.334Z,99982.73
2017-05-29T22:53:39.396Z,99985.02
2017-05-29T22:56:08.476Z,99984.84
2017-05-29T22:58:37.567Z,99982.93
2017-05-29T23:01:06.636Z,99987.17
2017-05-29T23:03:35.692Z,99982.54
2017-05-29T23:06:04.772Z,99986.42
2017-05-29T23:08:33.841Z,99986.08
2017-05-29T23:11:02.916Z,99986.30
2017-05-29T23:13:32.011Z,99980.48
2017-05-29T23:16:01.090Z,99984.73
2017-05-29T23:18:30.185Z,99976.28
2017-05-29T23:20:59.360Z,99980.23
2017-05-29T23:23:28.425Z,99971.69
2017-05-29T23:25:57.533Z,99970.66
2017-05-29T23:28:26.581Z,99965.03
2017-05-29T23:30:55.696Z,99967.08
2017-05-29T23:33:24.774Z,99957.27
2017-05-29T23:35:53.837Z,99962.28
2017-05-29T23:38:22.884Z,99962.23
2017-05-29T23:40:52.019Z,99961.63
2017-05-29T23:43:21.062Z,99965.11
2017-05-29T23:45:50.140Z,99963.03
2017-05-29T23:48:19.190Z,99969.08
2017-05-29T23:50:48.397Z,99961.86
2017-05-29T23:53:17.465Z,99956.83
2017-05-29T23:55:46.547Z,99962.52
2017-05-29T23:58:15.597Z,99963.66
